Bothnia — PBLG — position and weather

sailwx.info

Track history (hours):
 
Tides and Currents Weather Stations Pressure Air Temp Water Temp Dewpoint Dewpoint Depression Visibility Wind Speed Wind Dir Waves Ship Positions

Bothnia

Last reported at 2017-Feb-19 19:30 UTC. Time now 2017-Feb-20 06:25 UTC.
Position N 56°38' W 002°22'.

Length 82 m; draft 5.3 m.

Type: Cargo ship. MMSI: 244741000.

Date/timePositionNaut miles runAvg speedWind from/ knotsBaromVisibWave heightAir tempDewpointWater temp
2017-Feb-19 19:30N 56°38' W 002°22'6 6.0
2017-Feb-19 18:33N 56°32' W 002°21'7 6.7
2017-Feb-19 17:34N 56°26' W 002°19'7 6.9
2017-Feb-19 16:34N 56°19' W 002°16'7 6.9
2017-Feb-19 15:34N 56°12' W 002°13'7 7.0
2017-Feb-19 14:34N 56°05' W 002°11'7 7.3
2017-Feb-19 13:33N 55°59' W 002°05'9 8.4
2017-Feb-19 12:30N 55°52' W 001°54'9 9.0
2017-Feb-19 11:33N 55°46' W 001°44'11 7.2
2017-Feb-19 10:04N 55°38' W 001°31'4 7.3
2017-Feb-19 09:33N 55°35' W 001°28'8 7.5
2017-Feb-19 08:33N 55°28' W 001°23'8 7.6
2017-Feb-19 07:33N 55°21' W 001°18'8 7.9
2017-Feb-19 06:34N 55°13' W 001°14'8 7.8
2017-Feb-19 05:34N 55°06' W 001°10'9 8.0
2017-Feb-19 04:23N 54°57' W 001°04'31 8.2
2017-Feb-19 00:33N 54°33' W 000°28'8 7.8
2017-Feb-18 23:34N 54°28' W 000°20'8 7.6
2017-Feb-18 22:34N 54°21' W 000°13'7 7.2
2017-Feb-18 21:34N 54°15' W 000°06'8 7.5
2017-Feb-18 20:34N 54°08' E 000°00'8 7.7
2017-Feb-18 19:33N 54°02' E 000°07'67 8.4
2017-Feb-18 11:34N 53°05' E 001°07'7 7.4
2017-Feb-18 10:34N 53°02' E 001°19'8 8.0
2017-Feb-18 09:34N 52°58' E 001°31'9 9.3
2017-Feb-18 08:34N 52°52' E 001°42'1111.3
2017-Feb-18 07:33N 52°44' E 001°55'3210.7
2017-Feb-18 04:31N 52°18' E 002°28'28 9.2
2017-Feb-18 01:30N 51°57' E 002°57'10 9.1
2017-Feb-18 00:21N 51°49' E 003°08'17 9.7
2017-Feb-17 22:33N 51°35' E 003°24'1010.0
2017-Feb-17 21:33N 51°27' E 003°34'5 5.1
2017-Feb-17 20:33N 51°28' E 003°42'0 0.0
2017-Feb-17 19:33N 51°28' E 003°42'0 0.0
2017-Feb-17 18:33N 51°28' E 003°42'0 0.0
2017-Feb-17 17:33N 51°28' E 003°42'0 0.0
2017-Feb-17 16:33N 51°28' E 003°42'0 0.0
2017-Feb-17 15:33N 51°28' E 003°42'1 1.2
2017-Feb-17 14:33N 51°27' E 003°43'0 0.0
2017-Feb-17 13:33N 51°27' E 003°43'0 0.0
2017-Feb-17 12:33N 51°27' E 003°43'0 0.0
2017-Feb-17 11:33N 51°27' E 003°43'0 0.0
2017-Feb-17 10:33N 51°27' E 003°43'0 0.0
2017-Feb-17 09:33N 51°27' E 003°43'0 0.0
2017-Feb-17 08:33N 51°27' E 003°43'0 0.0
2017-Feb-17 07:33N 51°27' E 003°43'0 0.0
2017-Feb-17 06:33N 51°27' E 003°43'0 0.0
2017-Feb-17 05:33N 51°27' E 003°43'0 0.0
2017-Feb-17 04:33N 51°27' E 003°43'0 0.0
2017-Feb-17 03:33N 51°27' E 003°43'0 0.0
2017-Feb-17 02:33N 51°27' E 003°43'0 0.0
2017-Feb-17 01:33N 51°27' E 003°43'1 1.2
2017-Feb-17 00:33N 51°28' E 003°42'0 0.0
2017-Feb-16 23:33N 51°28' E 003°42'0 0.0
2017-Feb-16 22:33N 51°28' E 003°42'0 0.0
2017-Feb-16 21:33N 51°28' E 003°42'0 0.0
2017-Feb-16 20:33N 51°28' E 003°42'0 0.0
2017-Feb-16 19:33N 51°28' E 003°42'0 0.0
2017-Feb-16 18:33N 51°28' E 003°42'0 0.0
2017-Feb-16 17:33N 51°28' E 003°42'0 0.0
2017-Feb-16 16:33N 51°28' E 003°42'0 0.0
2017-Feb-16 15:33N 51°28' E 003°42'0 0.0
2017-Feb-16 14:33N 51°28' E 003°42'0 0.0
2017-Feb-16 13:33N 51°28' E 003°42'1 0.6
2017-Feb-16 12:33N 51°27' E 003°41'10 9.3
2017-Feb-16 11:32N 51°31' E 003°27'1010.7
2017-Feb-16 10:33N 51°40' E 003°20'39 9.1
2017-Feb-16 06:13N 52°19' E 003°31'6 8.2
2017-Feb-16 05:32N 52°24' E 003°35'8 8.1
2017-Feb-16 04:32N 52°31' E 003°42'9 8.9
2017-Feb-16 03:33N 52°39' E 003°49'10 9.8
2017-Feb-16 02:33N 52°48' E 003°56'1010.0
2017-Feb-16 01:33N 52°57' E 004°01'1110.4
2017-Feb-16 00:32N 53°04' E 004°14'1010.0
2017-Feb-15 23:32N 53°11' E 004°25'9 9.5
2017-Feb-15 22:34N 53°20' E 004°32'112 9.3
2017-Feb-15 10:33N 53°59' E 007°29'9 9.0
2017-Feb-15 09:34N 54°02' E 007°43'10 9.9
2017-Feb-15 08:33N 54°02' E 008°00'1110.9
2017-Feb-15 07:33N 54°01' E 008°19'1312.4
2017-Feb-15 06:32N 53°57' E 008°39'1110.9
2017-Feb-15 05:33N 53°51' E 008°54'9 9.2
2017-Feb-15 04:34N 53°54' E 009°09'5 4.7
2017-Feb-15 03:34N 53°57' E 009°14'8 7.5
2017-Feb-15 02:33N 54°04' E 009°19'34 5.7
2017-Feb-14 20:33N 54°22' E 010°09'9 8.6
2017-Feb-14 19:34N 54°29' E 010°17'1010.1
2017-Feb-14 18:34N 54°34' E 010°32'10 9.9
2017-Feb-14 17:33N 54°35' E 010°49'1110.7
2017-Feb-14 16:33N 54°36' E 011°07'1010.1
2017-Feb-14 15:34N 54°33' E 011°24'1010.0
2017-Feb-14 14:34N 54°29' E 011°40'10 9.5
2017-Feb-14 13:34N 54°28' E 011°56'9 8.9
2017-Feb-14 12:34N 54°30' E 012°11'10 9.6
2017-Feb-14 11:33N 54°38' E 012°19'10 9.9
2017-Feb-14 10:33N 54°44' E 012°33'10 9.8
2017-Feb-14 09:34N 54°48' E 012°48'10 9.9
2017-Feb-14 08:31N 54°52' E 013°05'14 9.9
2017-Feb-14 07:05N 54°57' E 013°28'610.3
2017-Feb-14 06:33N 54°59' E 013°37'1110.6
2017-Feb-14 05:33N 55°03' E 013°54'1010.1
2017-Feb-14 04:33N 55°08' E 014°09'1010.2
2017-Feb-14 03:34N 55°16' E 014°21'1010.2
2017-Feb-14 02:33N 55°24' E 014°32'1010.1
2017-Feb-14 01:34N 55°30' E 014°47'1010.4
2017-Feb-14 00:34N 55°35' E 015°02'411 9.3
2017-Feb-12 04:28N 59°44' E 025°13'39 9.6
2017-Feb-12 00:24N 59°37' E 026°29'6 1.2
2017-Feb-11 19:34N 59°32' E 026°33'0 0.0
2017-Feb-11 08:33N 59°32' E 026°33'0 0.0
2017-Feb-11 01:26N 59°32' E 026°33'8 8.5
2017-Feb-11 00:32N 59°39' E 026°28'1410.5
2017-Feb-10 23:12N 59°44' E 026°02'1110.6
2017-Feb-10 22:10N 59°44' E 025°40'5611.0
2017-Feb-10 17:05N 59°35' E 023°50'611.3
2017-Feb-10 16:32N 59°34' E 023°39'10210.9
2017-Feb-10 07:11N 59°03' E 020°27'9810.2
2017-Feb-09 21:33N 58°37' E 017°24'1010.3
2017-Feb-09 20:34N 58°37' E 017°04'1010.3
2017-Feb-09 19:34N 58°37' E 016°44'  
Track history (hours):
 
Tides and Currents Weather Stations Pressure Air Temp Water Temp Dewpoint Dewpoint Depression Visibility Wind Speed Wind Dir Waves Ship Positions

Bothnia

Last reported at 2017-Feb-19 19:30 UTC. Time now 2017-Feb-20 06:25 UTC.
Position N 56°38' W 002°22'.

Length 82 m; draft 5.3 m.

Type: Cargo ship. MMSI: 244741000.

Date/timePositionNaut miles runAvg speedWind from/ knotsBaromVisibWave heightAir tempDewpointWater temp
2017-Feb-19 19:30N 56°38' W 002°22'6 6.0
2017-Feb-19 18:33N 56°32' W 002°21'7 6.7
2017-Feb-19 17:34N 56°26' W 002°19'7 6.9
2017-Feb-19 16:34N 56°19' W 002°16'7 6.9
2017-Feb-19 15:34N 56°12' W 002°13'7 7.0
2017-Feb-19 14:34N 56°05' W 002°11'7 7.3
2017-Feb-19 13:33N 55°59' W 002°05'9 8.4
2017-Feb-19 12:30N 55°52' W 001°54'9 9.0
2017-Feb-19 11:33N 55°46' W 001°44'11 7.2
2017-Feb-19 10:04N 55°38' W 001°31'4 7.3
2017-Feb-19 09:33N 55°35' W 001°28'8 7.5
2017-Feb-19 08:33N 55°28' W 001°23'8 7.6
2017-Feb-19 07:33N 55°21' W 001°18'8 7.9
2017-Feb-19 06:34N 55°13' W 001°14'8 7.8
2017-Feb-19 05:34N 55°06' W 001°10'9 8.0
2017-Feb-19 04:23N 54°57' W 001°04'31 8.2
2017-Feb-19 00:33N 54°33' W 000°28'8 7.8
2017-Feb-18 23:34N 54°28' W 000°20'8 7.6
2017-Feb-18 22:34N 54°21' W 000°13'7 7.2
2017-Feb-18 21:34N 54°15' W 000°06'8 7.5
2017-Feb-18 20:34N 54°08' E 000°00'8 7.7
2017-Feb-18 19:33N 54°02' E 000°07'67 8.4
2017-Feb-18 11:34N 53°05' E 001°07'7 7.4
2017-Feb-18 10:34N 53°02' E 001°19'8 8.0
2017-Feb-18 09:34N 52°58' E 001°31'9 9.3
2017-Feb-18 08:34N 52°52' E 001°42'1111.3
2017-Feb-18 07:33N 52°44' E 001°55'3210.7
2017-Feb-18 04:31N 52°18' E 002°28'28 9.2
2017-Feb-18 01:30N 51°57' E 002°57'10 9.1
2017-Feb-18 00:21N 51°49' E 003°08'17 9.7
2017-Feb-17 22:33N 51°35' E 003°24'1010.0
2017-Feb-17 21:33N 51°27' E 003°34'5 5.1
2017-Feb-17 20:33N 51°28' E 003°42'0 0.0
2017-Feb-17 19:33N 51°28' E 003°42'0 0.0
2017-Feb-17 18:33N 51°28' E 003°42'0 0.0
2017-Feb-17 17:33N 51°28' E 003°42'0 0.0
2017-Feb-17 16:33N 51°28' E 003°42'0 0.0
2017-Feb-17 15:33N 51°28' E 003°42'1 1.2
2017-Feb-17 14:33N 51°27' E 003°43'0 0.0
2017-Feb-17 13:33N 51°27' E 003°43'0 0.0
2017-Feb-17 12:33N 51°27' E 003°43'0 0.0
2017-Feb-17 11:33N 51°27' E 003°43'0 0.0
2017-Feb-17 10:33N 51°27' E 003°43'0 0.0
2017-Feb-17 09:33N 51°27' E 003°43'0 0.0
2017-Feb-17 08:33N 51°27' E 003°43'0 0.0
2017-Feb-17 07:33N 51°27' E 003°43'0 0.0
2017-Feb-17 06:33N 51°27' E 003°43'0 0.0
2017-Feb-17 05:33N 51°27' E 003°43'0 0.0
2017-Feb-17 04:33N 51°27' E 003°43'0 0.0
2017-Feb-17 03:33N 51°27' E 003°43'0 0.0
2017-Feb-17 02:33N 51°27' E 003°43'0 0.0
2017-Feb-17 01:33N 51°27' E 003°43'1 1.2
2017-Feb-17 00:33N 51°28' E 003°42'0 0.0
2017-Feb-16 23:33N 51°28' E 003°42'0 0.0
2017-Feb-16 22:33N 51°28' E 003°42'0 0.0
2017-Feb-16 21:33N 51°28' E 003°42'0 0.0
2017-Feb-16 20:33N 51°28' E 003°42'0 0.0
2017-Feb-16 19:33N 51°28' E 003°42'0 0.0
2017-Feb-16 18:33N 51°28' E 003°42'0 0.0
2017-Feb-16 17:33N 51°28' E 003°42'0 0.0
2017-Feb-16 16:33N 51°28' E 003°42'0 0.0
2017-Feb-16 15:33N 51°28' E 003°42'0 0.0
2017-Feb-16 14:33N 51°28' E 003°42'0 0.0
2017-Feb-16 13:33N 51°28' E 003°42'1 0.6
2017-Feb-16 12:33N 51°27' E 003°41'10 9.3
2017-Feb-16 11:32N 51°31' E 003°27'1010.7
2017-Feb-16 10:33N 51°40' E 003°20'39 9.1
2017-Feb-16 06:13N 52°19' E 003°31'6 8.2
2017-Feb-16 05:32N 52°24' E 003°35'8 8.1
2017-Feb-16 04:32N 52°31' E 003°42'9 8.9
2017-Feb-16 03:33N 52°39' E 003°49'10 9.8
2017-Feb-16 02:33N 52°48' E 003°56'1010.0
2017-Feb-16 01:33N 52°57' E 004°01'1110.4
2017-Feb-16 00:32N 53°04' E 004°14'1010.0
2017-Feb-15 23:32N 53°11' E 004°25'9 9.5
2017-Feb-15 22:34N 53°20' E 004°32'112 9.3
2017-Feb-15 10:33N 53°59' E 007°29'9 9.0
2017-Feb-15 09:34N 54°02' E 007°43'10 9.9
2017-Feb-15 08:33N 54°02' E 008°00'1110.9
2017-Feb-15 07:33N 54°01' E 008°19'1312.4
2017-Feb-15 06:32N 53°57' E 008°39'1110.9
2017-Feb-15 05:33N 53°51' E 008°54'9 9.2
2017-Feb-15 04:34N 53°54' E 009°09'5 4.7
2017-Feb-15 03:34N 53°57' E 009°14'8 7.5
2017-Feb-15 02:33N 54°04' E 009°19'34 5.7
2017-Feb-14 20:33N 54°22' E 010°09'9 8.6
2017-Feb-14 19:34N 54°29' E 010°17'1010.1
2017-Feb-14 18:34N 54°34' E 010°32'10 9.9
2017-Feb-14 17:33N 54°35' E 010°49'1110.7
2017-Feb-14 16:33N 54°36' E 011°07'1010.1
2017-Feb-14 15:34N 54°33' E 011°24'1010.0
2017-Feb-14 14:34N 54°29' E 011°40'10 9.5
2017-Feb-14 13:34N 54°28' E 011°56'9 8.9
2017-Feb-14 12:34N 54°30' E 012°11'10 9.6
2017-Feb-14 11:33N 54°38' E 012°19'10 9.9
2017-Feb-14 10:33N 54°44' E 012°33'10 9.8
2017-Feb-14 09:34N 54°48' E 012°48'10 9.9
2017-Feb-14 08:31N 54°52' E 013°05'14 9.9
2017-Feb-14 07:05N 54°57' E 013°28'610.3
2017-Feb-14 06:33N 54°59' E 013°37'1110.6
2017-Feb-14 05:33N 55°03' E 013°54'1010.1
2017-Feb-14 04:33N 55°08' E 014°09'1010.2
2017-Feb-14 03:34N 55°16' E 014°21'1010.2
2017-Feb-14 02:33N 55°24' E 014°32'1010.1
2017-Feb-14 01:34N 55°30' E 014°47'1010.4
2017-Feb-14 00:34N 55°35' E 015°02'411 9.3
2017-Feb-12 04:28N 59°44' E 025°13'39 9.6
2017-Feb-12 00:24N 59°37' E 026°29'6 1.2
2017-Feb-11 19:34N 59°32' E 026°33'0 0.0
2017-Feb-11 08:33N 59°32' E 026°33'0 0.0
2017-Feb-11 01:26N 59°32' E 026°33'8 8.5
2017-Feb-11 00:32N 59°39' E 026°28'1410.5
2017-Feb-10 23:12N 59°44' E 026°02'1110.6
2017-Feb-10 22:10N 59°44' E 025°40'5611.0
2017-Feb-10 17:05N 59°35' E 023°50'611.3
2017-Feb-10 16:32N 59°34' E 023°39'10210.9
2017-Feb-10 07:11N 59°03' E 020°27'9810.2
2017-Feb-09 21:33N 58°37' E 017°24'1010.3
2017-Feb-09 20:34N 58°37' E 017°04'1010.3
2017-Feb-09 19:34N 58°37' E 016°44'  

Dump ship's entire track history